Terminal Aerodrome Forecast
Issued by NWS

Home | Current Version | Previous Version | Text Only | Print | Product List | Glossary Off
Versions: 1 2 3 4 5 6 7 8 9 10 11 12 13 14 15 16 17 18 19

981
FTUS42 KMHX 251337 AAA
TAFISO
TAF AMD
KISO 251337Z 2514/2612 21006KT P6SM SCT008 BKN015
     FM251600 23009KT P6SM SHRA VCTS BKN030CB
     FM252200 28009KT P6SM SCT030
      AMD LTD TO CLD VIS AND WIND=

USA.gov is the U.S. government's official web portal to all federal, state and local government web resources and services.